sensor_id;sensor_type;location;lat;lon;timestamp;P1;durP1;ratioP1;P2;durP2;ratioP2
7233;SDS011;3658;47.992;10.158;2023-04-15T00:02:15;3.83;;;2.23;;
7233;SDS011;3658;47.992;10.158;2023-04-15T00:04:43;3.23;;;1.90;;
7233;SDS011;3658;47.992;10.158;2023-04-15T00:07:10;3.13;;;2.00;;
7233;SDS011;3658;47.992;10.158;2023-04-15T00:09:39;2.03;;;1.77;;
7233;SDS011;3658;47.992;10.158;2023-04-15T00:12:07;2.43;;;1.80;;
7233;SDS011;3658;47.992;10.158;2023-04-15T00:14:34;1.97;;;1.60;;
7233;SDS011;3658;47.992;10.158;2023-04-15T00:17:01;2.33;;;1.80;;
7233;SDS011;3658;47.992;10.158;2023-04-15T00:19:29;2.00;;;1.70;;
7233;SDS011;3658;47.992;10.158;2023-04-15T00:21:56;2.83;;;1.93;;
7233;SDS011;3658;47.992;10.158;2023-04-15T00:24:23;2.83;;;1.80;;
7233;SDS011;3658;47.992;10.158;2023-04-15T00:26:52;2.20;;;1.90;;
7233;SDS011;3658;47.992;10.158;2023-04-15T00:29:19;3.20;;;1.80;;
7233;SDS011;3658;47.992;10.158;2023-04-15T00:31:45;2.60;;;1.80;;
7233;SDS011;3658;47.992;10.158;2023-04-15T00:34:12;2.17;;;1.97;;
7233;SDS011;3658;47.992;10.158;2023-04-15T00:36:39;2.03;;;1.83;;
7233;SDS011;3658;47.992;10.158;2023-04-15T00:39:06;2.13;;;1.70;;
7233;SDS011;3658;47.992;10.158;2023-04-15T00:41:33;3.37;;;1.90;;
7233;SDS011;3658;47.992;10.158;2023-04-15T00:44:04;2.47;;;1.90;;
7233;SDS011;3658;47.992;10.158;2023-04-15T00:46:32;2.80;;;1.77;;
7233;SDS011;3658;47.992;10.158;2023-04-15T00:49:01;1.67;;;1.50;;
7233;SDS011;3658;47.992;10.158;2023-04-15T00:51:30;2.40;;;1.70;;
7233;SDS011;3658;47.992;10.158;2023-04-15T00:54:00;2.40;;;1.77;;
7233;SDS011;3658;47.992;10.158;2023-04-15T00:56:27;2.43;;;2.00;;
7233;SDS011;3658;47.992;10.158;2023-04-15T00:58:55;1.70;;;1.60;;
7233;SDS011;3658;47.992;10.158;2023-04-15T01:01:24;2.10;;;1.67;;
7233;SDS011;3658;47.992;10.158;2023-04-15T01:03:52;2.63;;;1.70;;
7233;SDS011;3658;47.992;10.158;2023-04-15T01:06:18;1.50;;;1.40;;
7233;SDS011;3658;47.992;10.158;2023-04-15T01:08:45;1.93;;;1.70;;
7233;SDS011;3658;47.992;10.158;2023-04-15T01:11:13;1.87;;;1.43;;
7233;SDS011;3658;47.992;10.158;2023-04-15T01:13:40;2.40;;;1.70;;
7233;SDS011;3658;47.992;10.158;2023-04-15T01:16:08;1.77;;;1.60;;
7233;SDS011;3658;47.992;10.158;2023-04-15T01:18:36;2.90;;;1.87;;
7233;SDS011;3658;47.992;10.158;2023-04-15T01:21:04;2.43;;;1.60;;
7233;SDS011;3658;47.992;10.158;2023-04-15T01:23:33;2.10;;;1.47;;
7233;SDS011;3658;47.992;10.158;2023-04-15T01:26:04;1.70;;;1.50;;
7233;SDS011;3658;47.992;10.158;2023-04-15T01:28:33;1.90;;;1.70;;
7233;SDS011;3658;47.992;10.158;2023-04-15T01:31:06;1.53;;;1.43;;
7233;SDS011;3658;47.992;10.158;2023-04-15T01:33:34;1.93;;;1.53;;
7233;SDS011;3658;47.992;10.158;2023-04-15T01:36:02;2.40;;;1.87;;
7233;SDS011;3658;47.992;10.158;2023-04-15T01:38:29;1.60;;;1.50;;
7233;SDS011;3658;47.992;10.158;2023-04-15T01:40:57;2.20;;;1.70;;
7233;SDS011;3658;47.992;10.158;2023-04-15T01:43:25;1.67;;;1.40;;
7233;SDS011;3658;47.992;10.158;2023-04-15T01:45:53;2.00;;;1.40;;
7233;SDS011;3658;47.992;10.158;2023-04-15T01:48:20;1.50;;;1.40;;
7233;SDS011;3658;47.992;10.158;2023-04-15T01:50:47;2.07;;;1.57;;
7233;SDS011;3658;47.992;10.158;2023-04-15T01:53:14;2.33;;;1.60;;
7233;SDS011;3658;47.992;10.158;2023-04-15T01:55:41;2.20;;;1.60;;
7233;SDS011;3658;47.992;10.158;2023-04-15T01:58:08;1.40;;;1.30;;
7233;SDS011;3658;47.992;10.158;2023-04-15T02:00:36;1.63;;;1.53;;
7233;SDS011;3658;47.992;10.158;2023-04-15T02:03:03;1.50;;;1.40;;
7233;SDS011;3658;47.992;10.158;2023-04-15T02:05:30;1.60;;;1.50;;
7233;SDS011;3658;47.992;10.158;2023-04-15T02:07:57;1.87;;;1.50;;
7233;SDS011;3658;47.992;10.158;2023-04-15T02:10:24;2.40;;;1.70;;
7233;SDS011;3658;47.992;10.158;2023-04-15T02:12:51;2.03;;;1.30;;
7233;SDS011;3658;47.992;10.158;2023-04-15T02:15:19;1.53;;;1.30;;
7233;SDS011;3658;47.992;10.158;2023-04-15T02:17:47;2.67;;;1.57;;
7233;SDS011;3658;47.992;10.158;2023-04-15T02:20:15;1.73;;;1.50;;
7233;SDS011;3658;47.992;10.158;2023-04-15T02:22:42;2.13;;;1.30;;
7233;SDS011;3658;47.992;10.158;2023-04-15T02:25:09;2.33;;;1.50;;
7233;SDS011;3658;47.992;10.158;2023-04-15T02:27:36;1.80;;;1.40;;
7233;SDS011;3658;47.992;10.158;2023-04-15T02:30:03;1.80;;;1.50;;
7233;SDS011;3658;47.992;10.158;2023-04-15T02:32:31;1.40;;;1.30;;
7233;SDS011;3658;47.992;10.158;2023-04-15T02:35:02;1.40;;;1.30;;
7233;SDS011;3658;47.992;10.158;2023-04-15T02:37:29;1.70;;;1.60;;
7233;SDS011;3658;47.992;10.158;2023-04-15T02:40:00;1.40;;;1.30;;
7233;SDS011;3658;47.992;10.158;2023-04-15T02:42:29;1.57;;;1.40;;
7233;SDS011;3658;47.992;10.158;2023-04-15T02:44:56;1.30;;;1.20;;
7233;SDS011;3658;47.992;10.158;2023-04-15T02:47:23;1.50;;;1.40;;
7233;SDS011;3658;47.992;10.158;2023-04-15T02:49:50;1.50;;;1.40;;
7233;SDS011;3658;47.992;10.158;2023-04-15T02:52:18;1.80;;;1.33;;
7233;SDS011;3658;47.992;10.158;2023-04-15T02:54:45;1.43;;;1.33;;
7233;SDS011;3658;47.992;10.158;2023-04-15T02:57:12;1.57;;;1.30;;
7233;SDS011;3658;47.992;10.158;2023-04-15T02:59:39;2.27;;;1.20;;
7233;SDS011;3658;47.992;10.158;2023-04-15T03:02:06;1.60;;;1.50;;
7233;SDS011;3658;47.992;10.158;2023-04-15T03:04:33;1.50;;;1.40;;
7233;SDS011;3658;47.992;10.158;2023-04-15T03:07:00;1.57;;;1.23;;
7233;SDS011;3658;47.992;10.158;2023-04-15T03:09:29;1.40;;;1.20;;
7233;SDS011;3658;47.992;10.158;2023-04-15T03:11:56;1.60;;;1.30;;
7233;SDS011;3658;47.992;10.158;2023-04-15T03:14:23;1.40;;;1.30;;
7233;SDS011;3658;47.992;10.158;2023-04-15T03:16:50;1.50;;;1.40;;
7233;SDS011;3658;47.992;10.158;2023-04-15T03:19:17;1.50;;;1.20;;
7233;SDS011;3658;47.992;10.158;2023-04-15T03:21:44;1.40;;;1.30;;
7233;SDS011;3658;47.992;10.158;2023-04-15T03:24:10;1.70;;;1.40;;
7233;SDS011;3658;47.992;10.158;2023-04-15T03:26:39;1.50;;;1.30;;
7233;SDS011;3658;47.992;10.158;2023-04-15T03:29:06;1.70;;;1.23;;
7233;SDS011;3658;47.992;10.158;2023-04-15T03:31:33;1.47;;;1.20;;
7233;SDS011;3658;47.992;10.158;2023-04-15T03:34:00;1.37;;;1.13;;
7233;SDS011;3658;47.992;10.158;2023-04-15T03:36:27;2.13;;;1.30;;
7233;SDS011;3658;47.992;10.158;2023-04-15T03:38:55;1.57;;;1.37;;
7233;SDS011;3658;47.992;10.158;2023-04-15T03:41:22;3.80;;;1.50;;
7233;SDS011;3658;47.992;10.158;2023-04-15T03:43:50;1.87;;;1.30;;
7233;SDS011;3658;47.992;10.158;2023-04-15T03:46:17;1.40;;;1.30;;
7233;SDS011;3658;47.992;10.158;2023-04-15T03:48:45;1.57;;;1.30;;
7233;SDS011;3658;47.992;10.158;2023-04-15T03:51:12;1.50;;;1.40;;
7233;SDS011;3658;47.992;10.158;2023-04-15T03:53:39;1.30;;;1.20;;
7233;SDS011;3658;47.992;10.158;2023-04-15T03:56:06;1.50;;;1.30;;
7233;SDS011;3658;47.992;10.158;2023-04-15T03:58:33;1.47;;;1.20;;
7233;SDS011;3658;47.992;10.158;2023-04-15T04:01:02;1.27;;;1.17;;
7233;SDS011;3658;47.992;10.158;2023-04-15T04:03:29;1.30;;;1.20;;
7233;SDS011;3658;47.992;10.158;2023-04-15T04:05:56;1.27;;;1.17;;
7233;SDS011;3658;47.992;10.158;2023-04-15T04:08:23;2.07;;;1.30;;
7233;SDS011;3658;47.992;10.158;2023-04-15T04:10:51;1.70;;;1.30;;
7233;SDS011;3658;47.992;10.158;2023-04-15T04:13:18;1.30;;;1.20;;
7233;SDS011;3658;47.992;10.158;2023-04-15T04:15:45;1.40;;;1.30;;
7233;SDS011;3658;47.992;10.158;2023-04-15T04:18:13;1.20;;;1.10;;
7233;SDS011;3658;47.992;10.158;2023-04-15T04:20:40;1.80;;;1.30;;
7233;SDS011;3658;47.992;10.158;2023-04-15T04:23:07;1.93;;;1.23;;
7233;SDS011;3658;47.992;10.158;2023-04-15T04:25:35;1.60;;;1.30;;
7233;SDS011;3658;47.992;10.158;2023-04-15T04:28:02;1.50;;;1.30;;
7233;SDS011;3658;47.992;10.158;2023-04-15T04:30:29;1.67;;;1.23;;
7233;SDS011;3658;47.992;10.158;2023-04-15T04:32:56;1.30;;;1.20;;
7233;SDS011;3658;47.992;10.158;2023-04-15T04:35:24;1.57;;;1.40;;
7233;SDS011;3658;47.992;10.158;2023-04-15T04:37:51;3.10;;;1.20;;
7233;SDS011;3658;47.992;10.158;2023-04-15T04:40:18;1.50;;;1.20;;
7233;SDS011;3658;47.992;10.158;2023-04-15T04:42:46;1.40;;;1.20;;
7233;SDS011;3658;47.992;10.158;2023-04-15T04:45:13;1.30;;;1.20;;
7233;SDS011;3658;47.992;10.158;2023-04-15T04:47:40;0.97;;;0.97;;
7233;SDS011;3658;47.992;10.158;2023-04-15T04:50:07;3.07;;;1.40;;
7233;SDS011;3658;47.992;10.158;2023-04-15T04:52:36;1.30;;;1.20;;
7233;SDS011;3658;47.992;10.158;2023-04-15T04:55:04;1.40;;;1.30;;
7233;SDS011;3658;47.992;10.158;2023-04-15T04:57:32;1.13;;;1.03;;
7233;SDS011;3658;47.992;10.158;2023-04-15T04:59:59;1.37;;;1.20;;
7233;SDS011;3658;47.992;10.158;2023-04-15T05:02:27;1.20;;;1.10;;
7233;SDS011;3658;47.992;10.158;2023-04-15T05:04:54;1.83;;;1.20;;
7233;SDS011;3658;47.992;10.158;2023-04-15T05:07:21;1.10;;;1.00;;
7233;SDS011;3658;47.992;10.158;2023-04-15T05:09:49;2.10;;;1.23;;
7233;SDS011;3658;47.992;10.158;2023-04-15T05:12:16;1.23;;;1.13;;
7233;SDS011;3658;47.992;10.158;2023-04-15T05:14:43;1.33;;;1.10;;
7233;SDS011;3658;47.992;10.158;2023-04-15T05:17:10;1.27;;;1.00;;
7233;SDS011;3658;47.992;10.158;2023-04-15T05:19:38;1.30;;;1.20;;
7233;SDS011;3658;47.992;10.158;2023-04-15T05:22:05;2.17;;;1.00;;
7233;SDS011;3658;47.992;10.158;2023-04-15T05:24:32;1.33;;;1.23;;
7233;SDS011;3658;47.992;10.158;2023-04-15T05:27:01;4.37;;;1.27;;
7233;SDS011;3658;47.992;10.158;2023-04-15T05:29:28;1.83;;;1.10;;
7233;SDS011;3658;47.992;10.158;2023-04-15T05:31:54;1.57;;;1.00;;
7233;SDS011;3658;47.992;10.158;2023-04-15T05:34:22;2.10;;;1.00;;
7233;SDS011;3658;47.992;10.158;2023-04-15T05:36:48;0.87;;;0.87;;
7233;SDS011;3658;47.992;10.158;2023-04-15T05:39:16;2.33;;;1.37;;
7233;SDS011;3658;47.992;10.158;2023-04-15T05:41:43;3.43;;;1.20;;
7233;SDS011;3658;47.992;10.158;2023-04-15T05:44:12;1.30;;;1.20;;
7233;SDS011;3658;47.992;10.158;2023-04-15T05:46:39;1.33;;;1.23;;
7233;SDS011;3658;47.992;10.158;2023-04-15T05:49:06;1.83;;;1.13;;
7233;SDS011;3658;47.992;10.158;2023-04-15T05:51:33;2.30;;;1.17;;
7233;SDS011;3658;47.992;10.158;2023-04-15T05:54:00;1.23;;;1.10;;
7233;SDS011;3658;47.992;10.158;2023-04-15T05:56:27;1.10;;;1.00;;
7233;SDS011;3658;47.992;10.158;2023-04-15T05:58:54;1.37;;;1.17;;
7233;SDS011;3658;47.992;10.158;2023-04-15T06:01:22;1.27;;;1.17;;
7233;SDS011;3658;47.992;10.158;2023-04-15T06:03:49;1.43;;;1.23;;
7233;SDS011;3658;47.992;10.158;2023-04-15T06:06:16;2.10;;;0.90;;
7233;SDS011;3658;47.992;10.158;2023-04-15T06:08:43;2.47;;;1.13;;
7233;SDS011;3658;47.992;10.158;2023-04-15T06:11:10;2.13;;;1.13;;
7233;SDS011;3658;47.992;10.158;2023-04-15T06:13:37;1.50;;;1.10;;
7233;SDS011;3658;47.992;10.158;2023-04-15T06:16:04;1.03;;;0.93;;
7233;SDS011;3658;47.992;10.158;2023-04-15T06:18:33;1.57;;;1.10;;
7233;SDS011;3658;47.992;10.158;2023-04-15T06:21:00;1.40;;;1.30;;
7233;SDS011;3658;47.992;10.158;2023-04-15T06:23:27;1.40;;;1.30;;
7233;SDS011;3658;47.992;10.158;2023-04-15T06:25:55;1.10;;;1.00;;
7233;SDS011;3658;47.992;10.158;2023-04-15T06:28:22;2.10;;;1.00;;
7233;SDS011;3658;47.992;10.158;2023-04-15T06:30:49;1.70;;;1.30;;
7233;SDS011;3658;47.992;10.158;2023-04-15T06:33:15;2.80;;;1.20;;
7233;SDS011;3658;47.992;10.158;2023-04-15T06:35:44;8.60;;;1.63;;
7233;SDS011;3658;47.992;10.158;2023-04-15T06:38:11;2.03;;;1.10;;
7233;SDS011;3658;47.992;10.158;2023-04-15T06:40:38;4.13;;;1.20;;
7233;SDS011;3658;47.992;10.158;2023-04-15T06:43:06;2.17;;;1.10;;
7233;SDS011;3658;47.992;10.158;2023-04-15T06:45:33;2.33;;;1.20;;
7233;SDS011;3658;47.992;10.158;2023-04-15T06:48:00;1.87;;;1.10;;
7233;SDS011;3658;47.992;10.158;2023-04-15T06:50:27;1.60;;;1.37;;
7233;SDS011;3658;47.992;10.158;2023-04-15T06:52:56;2.70;;;1.30;;
7233;SDS011;3658;47.992;10.158;2023-04-15T06:55:22;1.83;;;1.20;;
7233;SDS011;3658;47.992;10.158;2023-04-15T06:57:49;1.93;;;1.37;;
7233;SDS011;3658;47.992;10.158;2023-04-15T07:00:17;3.23;;;1.10;;
7233;SDS011;3658;47.992;10.158;2023-04-15T07:02:44;1.63;;;1.20;;
7233;SDS011;3658;47.992;10.158;2023-04-15T07:05:11;5.07;;;1.10;;
7233;SDS011;3658;47.992;10.158;2023-04-15T07:07:38;3.97;;;1.30;;
7233;SDS011;3658;47.992;10.158;2023-04-15T07:10:08;3.50;;;1.70;;
7233;SDS011;3658;47.992;10.158;2023-04-15T07:12:36;5.03;;;1.50;;
7233;SDS011;3658;47.992;10.158;2023-04-15T07:15:03;4.67;;;1.30;;
7233;SDS011;3658;47.992;10.158;2023-04-15T07:17:31;4.70;;;1.30;;
7233;SDS011;3658;47.992;10.158;2023-04-15T07:19:58;2.60;;;1.40;;
7233;SDS011;3658;47.992;10.158;2023-04-15T07:22:25;1.83;;;1.23;;
7233;SDS011;3658;47.992;10.158;2023-04-15T07:24:52;2.37;;;1.50;;
7233;SDS011;3658;47.992;10.158;2023-04-15T07:27:20;1.97;;;1.07;;
7233;SDS011;3658;47.992;10.158;2023-04-15T07:29:47;4.40;;;1.40;;
7233;SDS011;3658;47.992;10.158;2023-04-15T07:32:16;4.43;;;1.20;;
7233;SDS011;3658;47.992;10.158;2023-04-15T07:34:43;3.87;;;1.53;;
7233;SDS011;3658;47.992;10.158;2023-04-15T07:37:10;5.37;;;1.30;;
7233;SDS011;3658;47.992;10.158;2023-04-15T07:39:37;9.80;;;1.70;;
7233;SDS011;3658;47.992;10.158;2023-04-15T07:42:04;6.70;;;1.37;;
7233;SDS011;3658;47.992;10.158;2023-04-15T07:44:32;4.87;;;1.20;;
7233;SDS011;3658;47.992;10.158;2023-04-15T07:47:00;11.23;;;1.80;;
7233;SDS011;3658;47.992;10.158;2023-04-15T07:49:28;13.27;;;2.67;;
7233;SDS011;3658;47.992;10.158;2023-04-15T07:51:55;7.50;;;2.33;;
7233;SDS011;3658;47.992;10.158;2023-04-15T07:54:24;7.67;;;2.07;;
7233;SDS011;3658;47.992;10.158;2023-04-15T07:56:52;11.90;;;2.20;;
7233;SDS011;3658;47.992;10.158;2023-04-15T07:59:20;8.53;;;1.50;;
7233;SDS011;3658;47.992;10.158;2023-04-15T08:01:48;9.33;;;1.47;;
7233;SDS011;3658;47.992;10.158;2023-04-15T08:04:15;6.27;;;1.53;;
7233;SDS011;3658;47.992;10.158;2023-04-15T08:06:42;11.43;;;1.80;;
7233;SDS011;3658;47.992;10.158;2023-04-15T08:09:09;5.20;;;1.73;;
7233;SDS011;3658;47.992;10.158;2023-04-15T08:11:36;1.97;;;1.40;;
7233;SDS011;3658;47.992;10.158;2023-04-15T08:14:03;5.83;;;1.50;;
7233;SDS011;3658;47.992;10.158;2023-04-15T08:16:31;5.67;;;1.40;;
7233;SDS011;3658;47.992;10.158;2023-04-15T08:18:59;5.73;;;1.60;;
7233;SDS011;3658;47.992;10.158;2023-04-15T08:21:26;6.07;;;1.40;;
7233;SDS011;3658;47.992;10.158;2023-04-15T08:23:54;4.53;;;1.43;;
7233;SDS011;3658;47.992;10.158;2023-04-15T08:26:21;3.90;;;1.60;;
7233;SDS011;3658;47.992;10.158;2023-04-15T08:28:48;6.27;;;1.30;;
7233;SDS011;3658;47.992;10.158;2023-04-15T08:31:16;3.53;;;1.53;;
7233;SDS011;3658;47.992;10.158;2023-04-15T08:33:44;2.93;;;1.17;;
7233;SDS011;3658;47.992;10.158;2023-04-15T08:36:12;2.47;;;1.33;;
7233;SDS011;3658;47.992;10.158;2023-04-15T08:38:39;3.60;;;1.30;;
7233;SDS011;3658;47.992;10.158;2023-04-15T08:41:07;1.83;;;1.40;;
7233;SDS011;3658;47.992;10.158;2023-04-15T08:43:41;4.30;;;1.40;;
7233;SDS011;3658;47.992;10.158;2023-04-15T08:46:16;4.97;;;1.57;;
7233;SDS011;3658;47.992;10.158;2023-04-15T08:48:44;1.93;;;1.20;;
7233;SDS011;3658;47.992;10.158;2023-04-15T08:51:14;5.40;;;1.53;;
7233;SDS011;3658;47.992;10.158;2023-04-15T08:53:42;2.97;;;1.20;;
7233;SDS011;3658;47.992;10.158;2023-04-15T08:56:11;3.90;;;1.33;;
7233;SDS011;3658;47.992;10.158;2023-04-15T08:58:39;2.87;;;1.60;;
7233;SDS011;3658;47.992;10.158;2023-04-15T09:01:06;3.17;;;1.30;;
7233;SDS011;3658;47.992;10.158;2023-04-15T09:03:33;3.07;;;1.30;;
7233;SDS011;3658;47.992;10.158;2023-04-15T09:06:02;3.03;;;1.20;;
7233;SDS011;3658;47.992;10.158;2023-04-15T09:08:31;3.73;;;1.30;;
7233;SDS011;3658;47.992;10.158;2023-04-15T09:11:00;1.97;;;1.00;;
7233;SDS011;3658;47.992;10.158;2023-04-15T09:13:27;1.57;;;1.10;;
7233;SDS011;3658;47.992;10.158;2023-04-15T09:15:54;4.70;;;1.40;;
7233;SDS011;3658;47.992;10.158;2023-04-15T09:18:28;2.23;;;1.10;;
7233;SDS011;3658;47.992;10.158;2023-04-15T09:21:03;1.17;;;0.97;;
7233;SDS011;3658;47.992;10.158;2023-04-15T09:23:34;2.23;;;1.00;;
7233;SDS011;3658;47.992;10.158;2023-04-15T09:26:01;1.27;;;1.17;;
7233;SDS011;3658;47.992;10.158;2023-04-15T09:28:29;0.97;;;0.90;;
7233;SDS011;3658;47.992;10.158;2023-04-15T09:30:56;3.20;;;1.10;;
7233;SDS011;3658;47.992;10.158;2023-04-15T09:33:24;1.70;;;1.30;;
7233;SDS011;3658;47.992;10.158;2023-04-15T09:35:55;1.90;;;1.03;;
7233;SDS011;3658;47.992;10.158;2023-04-15T09:38:24;1.30;;;0.90;;
7233;SDS011;3658;47.992;10.158;2023-04-15T09:40:52;1.93;;;1.07;;
7233;SDS011;3658;47.992;10.158;2023-04-15T09:43:20;1.80;;;0.90;;
7233;SDS011;3658;47.992;10.158;2023-04-15T09:45:47;1.13;;;1.00;;
7233;SDS011;3658;47.992;10.158;2023-04-15T09:48:16;1.90;;;1.07;;
7233;SDS011;3658;47.992;10.158;2023-04-15T09:50:45;1.03;;;0.83;;
7233;SDS011;3658;47.992;10.158;2023-04-15T09:53:17;1.23;;;0.90;;
7233;SDS011;3658;47.992;10.158;2023-04-15T09:55:45;1.30;;;1.00;;
7233;SDS011;3658;47.992;10.158;2023-04-15T09:58:19;1.27;;;1.00;;
7233;SDS011;3658;47.992;10.158;2023-04-15T10:00:48;0.83;;;0.83;;
7233;SDS011;3658;47.992;10.158;2023-04-15T10:03:17;2.37;;;1.30;;
7233;SDS011;3658;47.992;10.158;2023-04-15T10:05:47;1.40;;;1.07;;
7233;SDS011;3658;47.992;10.158;2023-04-15T10:08:16;1.57;;;1.00;;
7233;SDS011;3658;47.992;10.158;2023-04-15T10:10:44;0.80;;;0.80;;
7233;SDS011;3658;47.992;10.158;2023-04-15T10:13:12;1.00;;;0.90;;
7233;SDS011;3658;47.992;10.158;2023-04-15T10:15:42;1.10;;;0.90;;
7233;SDS011;3658;47.992;10.158;2023-04-15T10:18:12;1.03;;;0.87;;
7233;SDS011;3658;47.992;10.158;2023-04-15T10:20:41;1.80;;;1.07;;
7233;SDS011;3658;47.992;10.158;2023-04-15T10:23:09;1.23;;;1.10;;
7233;SDS011;3658;47.992;10.158;2023-04-15T10:25:37;1.23;;;1.10;;
7233;SDS011;3658;47.992;10.158;2023-04-15T10:28:05;1.23;;;0.83;;
7233;SDS011;3658;47.992;10.158;2023-04-15T10:30:33;1.60;;;0.90;;
7233;SDS011;3658;47.992;10.158;2023-04-15T10:33:03;1.07;;;1.00;;
7233;SDS011;3658;47.992;10.158;2023-04-15T10:35:31;0.80;;;0.80;;
7233;SDS011;3658;47.992;10.158;2023-04-15T10:37:59;2.53;;;1.10;;
7233;SDS011;3658;47.992;10.158;2023-04-15T10:40:26;1.07;;;0.90;;
7233;SDS011;3658;47.992;10.158;2023-04-15T10:42:56;1.10;;;1.00;;
7233;SDS011;3658;47.992;10.158;2023-04-15T10:45:25;1.60;;;1.00;;
7233;SDS011;3658;47.992;10.158;2023-04-15T10:47:55;1.03;;;1.00;;
7233;SDS011;3658;47.992;10.158;2023-04-15T10:50:26;0.90;;;0.90;;
7233;SDS011;3658;47.992;10.158;2023-04-15T10:52:54;1.57;;;0.90;;
7233;SDS011;3658;47.992;10.158;2023-04-15T10:55:22;1.20;;;1.00;;
7233;SDS011;3658;47.992;10.158;2023-04-15T10:57:51;1.10;;;0.90;;
7233;SDS011;3658;47.992;10.158;2023-04-15T11:00:19;1.77;;;1.00;;
7233;SDS011;3658;47.992;10.158;2023-04-15T11:02:51;0.90;;;0.90;;
7233;SDS011;3658;47.992;10.158;2023-04-15T11:05:20;0.93;;;0.90;;
7233;SDS011;3658;47.992;10.158;2023-04-15T11:07:51;1.13;;;0.80;;
7233;SDS011;3658;47.992;10.158;2023-04-15T11:13:23;0.80;;;0.80;;
7233;SDS011;3658;47.992;10.158;2023-04-15T11:15:59;1.07;;;0.97;;
7233;SDS011;3658;47.992;10.158;2023-04-15T11:18:28;0.70;;;0.70;;
7233;SDS011;3658;47.992;10.158;2023-04-15T11:20:59;0.80;;;0.80;;
7233;SDS011;3658;47.992;10.158;2023-04-15T11:23:31;1.00;;;0.90;;
7233;SDS011;3658;47.992;10.158;2023-04-15T11:25:59;1.10;;;1.00;;
7233;SDS011;3658;47.992;10.158;2023-04-15T11:28:29;0.97;;;0.87;;
7233;SDS011;3658;47.992;10.158;2023-04-15T11:30:57;1.47;;;1.00;;
7233;SDS011;3658;47.992;10.158;2023-04-15T11:33:30;1.43;;;1.00;;
7233;SDS011;3658;47.992;10.158;2023-04-15T11:35:57;0.90;;;0.90;;
7233;SDS011;3658;47.992;10.158;2023-04-15T11:38:24;1.73;;;1.10;;
7233;SDS011;3658;47.992;10.158;2023-04-15T11:40:53;1.10;;;0.90;;
7233;SDS011;3658;47.992;10.158;2023-04-15T11:43:21;1.00;;;0.90;;
7233;SDS011;3658;47.992;10.158;2023-04-15T11:45:50;1.17;;;1.07;;
7233;SDS011;3658;47.992;10.158;2023-04-15T11:48:18;1.00;;;0.90;;
7233;SDS011;3658;47.992;10.158;2023-04-15T11:50:51;1.17;;;0.97;;
7233;SDS011;3658;47.992;10.158;2023-04-15T11:53:19;1.50;;;1.03;;
7233;SDS011;3658;47.992;10.158;2023-04-15T11:55:47;1.53;;;1.03;;
7233;SDS011;3658;47.992;10.158;2023-04-15T11:58:17;1.47;;;0.97;;
7233;SDS011;3658;47.992;10.158;2023-04-15T12:00:46;1.33;;;0.90;;
7233;SDS011;3658;47.992;10.158;2023-04-15T12:03:18;0.80;;;0.80;;
7233;SDS011;3658;47.992;10.158;2023-04-15T12:06:06;0.90;;;0.90;;
7233;SDS011;3658;47.992;10.158;2023-04-15T12:08:55;1.07;;;0.97;;
7233;SDS011;3658;47.992;10.158;2023-04-15T12:14:18;0.93;;;0.80;;
7233;SDS011;3658;47.992;10.158;2023-04-15T12:16:48;1.47;;;1.10;;
7233;SDS011;3658;47.992;10.158;2023-04-15T12:19:16;1.60;;;1.07;;
7233;SDS011;3658;47.992;10.158;2023-04-15T12:21:47;1.23;;;1.00;;
7233;SDS011;3658;47.992;10.158;2023-04-15T12:24:18;1.13;;;1.00;;
7233;SDS011;3658;47.992;10.158;2023-04-15T12:26:47;0.80;;;0.80;;
7233;SDS011;3658;47.992;10.158;2023-04-15T12:29:18;0.83;;;0.83;;
7233;SDS011;3658;47.992;10.158;2023-04-15T12:31:47;0.80;;;0.80;;
7233;SDS011;3658;47.992;10.158;2023-04-15T12:34:16;0.83;;;0.83;;
7233;SDS011;3658;47.992;10.158;2023-04-15T12:36:44;0.77;;;0.77;;
7233;SDS011;3658;47.992;10.158;2023-04-15T12:39:11;0.80;;;0.80;;
7233;SDS011;3658;47.992;10.158;2023-04-15T12:41:38;1.57;;;1.23;;
7233;SDS011;3658;47.992;10.158;2023-04-15T12:44:06;1.03;;;0.93;;
7233;SDS011;3658;47.992;10.158;2023-04-15T12:46:34;1.10;;;0.87;;
7233;SDS011;3658;47.992;10.158;2023-04-15T12:49:01;2.67;;;0.97;;
7233;SDS011;3658;47.992;10.158;2023-04-15T12:51:28;1.10;;;1.00;;
7233;SDS011;3658;47.992;10.158;2023-04-15T12:53:56;1.00;;;1.00;;
7233;SDS011;3658;47.992;10.158;2023-04-15T12:56:23;1.00;;;0.90;;
7233;SDS011;3658;47.992;10.158;2023-04-15T12:58:51;1.43;;;0.90;;
7233;SDS011;3658;47.992;10.158;2023-04-15T13:01:18;1.00;;;0.93;;
7233;SDS011;3658;47.992;10.158;2023-04-15T13:03:46;1.27;;;1.17;;
7233;SDS011;3658;47.992;10.158;2023-04-15T13:06:14;1.23;;;0.90;;
7233;SDS011;3658;47.992;10.158;2023-04-15T13:08:41;1.67;;;1.10;;
7233;SDS011;3658;47.992;10.158;2023-04-15T13:11:08;0.83;;;0.83;;
7233;SDS011;3658;47.992;10.158;2023-04-15T13:13:35;1.40;;;0.90;;
7233;SDS011;3658;47.992;10.158;2023-04-15T13:16:02;1.10;;;1.00;;
7233;SDS011;3658;47.992;10.158;2023-04-15T13:18:30;0.90;;;0.90;;
7233;SDS011;3658;47.992;10.158;2023-04-15T13:21:00;1.27;;;1.00;;
7233;SDS011;3658;47.992;10.158;2023-04-15T13:23:27;1.00;;;0.90;;
7233;SDS011;3658;47.992;10.158;2023-04-15T13:25:54;0.70;;;0.70;;
7233;SDS011;3658;47.992;10.158;2023-04-15T13:28:21;1.10;;;0.93;;
7233;SDS011;3658;47.992;10.158;2023-04-15T13:30:48;0.80;;;0.80;;
7233;SDS011;3658;47.992;10.158;2023-04-15T13:33:15;0.83;;;0.83;;
7233;SDS011;3658;47.992;10.158;2023-04-15T13:35:42;1.13;;;1.00;;
7233;SDS011;3658;47.992;10.158;2023-04-15T13:38:11;0.80;;;0.80;;
7233;SDS011;3658;47.992;10.158;2023-04-15T13:40:38;1.50;;;1.10;;
7233;SDS011;3658;47.992;10.158;2023-04-15T13:43:05;0.70;;;0.70;;
7233;SDS011;3658;47.992;10.158;2023-04-15T13:45:32;0.90;;;0.90;;
7233;SDS011;3658;47.992;10.158;2023-04-15T13:47:59;1.50;;;0.97;;
7233;SDS011;3658;47.992;10.158;2023-04-15T13:50:26;1.00;;;1.00;;
7233;SDS011;3658;47.992;10.158;2023-04-15T13:52:53;0.80;;;0.80;;
7233;SDS011;3658;47.992;10.158;2023-04-15T13:55:21;1.17;;;1.00;;
7233;SDS011;3658;47.992;10.158;2023-04-15T13:57:48;1.50;;;1.07;;
7233;SDS011;3658;47.992;10.158;2023-04-15T14:00:16;1.17;;;1.07;;
7233;SDS011;3658;47.992;10.158;2023-04-15T14:02:43;1.33;;;1.20;;
7233;SDS011;3658;47.992;10.158;2023-04-15T14:05:10;0.90;;;0.90;;
7233;SDS011;3658;47.992;10.158;2023-04-15T14:07:37;0.90;;;0.90;;
7233;SDS011;3658;47.992;10.158;2023-04-15T14:10:05;0.90;;;0.90;;
7233;SDS011;3658;47.992;10.158;2023-04-15T14:12:34;1.10;;;1.00;;
7233;SDS011;3658;47.992;10.158;2023-04-15T14:15:01;0.90;;;0.90;;
7233;SDS011;3658;47.992;10.158;2023-04-15T14:17:28;0.80;;;0.80;;
7233;SDS011;3658;47.992;10.158;2023-04-15T14:19:55;1.20;;;0.80;;
7233;SDS011;3658;47.992;10.158;2023-04-15T14:22:22;1.30;;;1.00;;
7233;SDS011;3658;47.992;10.158;2023-04-15T14:24:49;0.90;;;0.90;;
7233;SDS011;3658;47.992;10.158;2023-04-15T14:27:17;0.80;;;0.80;;
7233;SDS011;3658;47.992;10.158;2023-04-15T14:29:46;1.27;;;0.90;;
7233;SDS011;3658;47.992;10.158;2023-04-15T14:32:13;1.10;;;0.83;;
7233;SDS011;3658;47.992;10.158;2023-04-15T14:34:40;1.10;;;1.00;;
7233;SDS011;3658;47.992;10.158;2023-04-15T14:37:07;1.10;;;1.00;;
7233;SDS011;3658;47.992;10.158;2023-04-15T14:39:34;0.80;;;0.80;;
7233;SDS011;3658;47.992;10.158;2023-04-15T14:42:01;0.90;;;0.90;;
7233;SDS011;3658;47.992;10.158;2023-04-15T14:44:27;1.37;;;1.07;;
7233;SDS011;3658;47.992;10.158;2023-04-15T14:46:56;1.07;;;0.83;;
7233;SDS011;3658;47.992;10.158;2023-04-15T14:49:23;0.90;;;0.90;;
7233;SDS011;3658;47.992;10.158;2023-04-15T14:51:50;0.80;;;0.80;;
7233;SDS011;3658;47.992;10.158;2023-04-15T14:54:17;1.30;;;1.00;;
7233;SDS011;3658;47.992;10.158;2023-04-15T14:56:44;1.10;;;1.00;;
7233;SDS011;3658;47.992;10.158;2023-04-15T14:59:11;1.00;;;1.00;;
7233;SDS011;3658;47.992;10.158;2023-04-15T15:01:38;1.47;;;1.23;;
7233;SDS011;3658;47.992;10.158;2023-04-15T15:04:06;1.00;;;0.90;;
7233;SDS011;3658;47.992;10.158;2023-04-15T15:06:34;1.00;;;0.90;;
7233;SDS011;3658;47.992;10.158;2023-04-15T15:09:01;1.00;;;0.90;;
7233;SDS011;3658;47.992;10.158;2023-04-15T15:11:28;0.90;;;0.90;;